sensor_id;sensor_type;location;lat;lon;timestamp;P1;durP1;ratioP1;P2;durP2;ratioP2
30149;SDS011;16962;48.646;9.026;2023-03-14T00:01:00;3.38;;;1.20;;
30149;SDS011;16962;48.646;9.026;2023-03-14T00:04:06;2.50;;;1.10;;
30149;SDS011;16962;48.646;9.026;2023-03-14T00:06:54;3.13;;;1.30;;
30149;SDS011;16962;48.646;9.026;2023-03-14T00:09:43;1.00;;;0.90;;
30149;SDS011;16962;48.646;9.026;2023-03-14T00:12:31;1.13;;;0.93;;
30149;SDS011;16962;48.646;9.026;2023-03-14T00:15:20;1.42;;;1.10;;
30149;SDS011;16962;48.646;9.026;2023-03-14T00:18:10;2.47;;;1.13;;
30149;SDS011;16962;48.646;9.026;2023-03-14T00:20:57;1.40;;;1.00;;
30149;SDS011;16962;48.646;9.026;2023-03-14T00:23:46;1.27;;;1.08;;
30149;SDS011;16962;48.646;9.026;2023-03-14T00:26:33;1.30;;;0.98;;
30149;SDS011;16962;48.646;9.026;2023-03-14T00:29:20;3.67;;;1.20;;
30149;SDS011;16962;48.646;9.026;2023-03-14T00:32:08;3.72;;;1.08;;
30149;SDS011;16962;48.646;9.026;2023-03-14T00:34:55;1.00;;;0.90;;
30149;SDS011;16962;48.646;9.026;2023-03-14T00:37:46;2.30;;;0.82;;
30149;SDS011;16962;48.646;9.026;2023-03-14T00:43:27;1.35;;;0.77;;
30149;SDS011;16962;48.646;9.026;2023-03-14T00:46:14;0.70;;;0.70;;
30149;SDS011;16962;48.646;9.026;2023-03-14T00:49:02;1.08;;;0.80;;
30149;SDS011;16962;48.646;9.026;2023-03-14T00:51:51;1.65;;;0.80;;
30149;SDS011;16962;48.646;9.026;2023-03-14T00:54:38;0.80;;;0.80;;
30149;SDS011;16962;48.646;9.026;2023-03-14T00:57:27;2.13;;;1.05;;
30149;SDS011;16962;48.646;9.026;2023-03-14T01:00:15;1.38;;;1.00;;
30149;SDS011;16962;48.646;9.026;2023-03-14T01:03:04;0.70;;;0.70;;
30149;SDS011;16962;48.646;9.026;2023-03-14T01:05:52;0.70;;;0.70;;
30149;SDS011;16962;48.646;9.026;2023-03-14T01:08:39;0.85;;;0.70;;
30149;SDS011;16962;48.646;9.026;2023-03-14T01:14:15;1.73;;;0.73;;
30149;SDS011;16962;48.646;9.026;2023-03-14T01:17:02;0.88;;;0.80;;
30149;SDS011;16962;48.646;9.026;2023-03-14T01:19:51;1.33;;;0.65;;
30149;SDS011;16962;48.646;9.026;2023-03-14T01:22:41;0.75;;;0.75;;
30149;SDS011;16962;48.646;9.026;2023-03-14T01:25:29;2.40;;;1.02;;
30149;SDS011;16962;48.646;9.026;2023-03-14T01:28:19;1.65;;;0.90;;
30149;SDS011;16962;48.646;9.026;2023-03-14T01:31:07;1.17;;;0.80;;
30149;SDS011;16962;48.646;9.026;2023-03-14T01:33:59;4.15;;;0.80;;
30149;SDS011;16962;48.646;9.026;2023-03-14T01:36:46;4.18;;;0.90;;
30149;SDS011;16962;48.646;9.026;2023-03-14T01:39:33;1.20;;;1.00;;
30149;SDS011;16962;48.646;9.026;2023-03-14T01:42:20;2.05;;;1.15;;
30149;SDS011;16962;48.646;9.026;2023-03-14T01:51:50;2.45;;;1.13;;
30149;SDS011;16962;48.646;9.026;2023-03-14T01:54:44;1.10;;;0.90;;
30149;SDS011;16962;48.646;9.026;2023-03-14T02:00:30;1.23;;;0.98;;
30149;SDS011;16962;48.646;9.026;2023-03-14T02:03:17;1.02;;;1.00;;
30149;SDS011;16962;48.646;9.026;2023-03-14T02:06:11;0.98;;;0.85;;
30149;SDS011;16962;48.646;9.026;2023-03-14T02:08:59;1.88;;;1.00;;
30149;SDS011;16962;48.646;9.026;2023-03-14T02:11:47;2.03;;;0.90;;
30149;SDS011;16962;48.646;9.026;2023-03-14T02:14:37;1.27;;;0.70;;
30149;SDS011;16962;48.646;9.026;2023-03-14T02:17:35;1.23;;;0.90;;
30149;SDS011;16962;48.646;9.026;2023-03-14T02:30:03;2.13;;;0.80;;
30149;SDS011;16962;48.646;9.026;2023-03-14T02:32:55;0.90;;;0.90;;
30149;SDS011;16962;48.646;9.026;2023-03-14T02:35:53;1.40;;;0.88;;
30149;SDS011;16962;48.646;9.026;2023-03-14T02:38:50;1.35;;;0.73;;
30149;SDS011;16962;48.646;9.026;2023-03-14T02:41:52;0.75;;;0.75;;
30149;SDS011;16962;48.646;9.026;2023-03-14T02:44:52;2.83;;;0.80;;
30149;SDS011;16962;48.646;9.026;2023-03-14T02:47:46;1.95;;;0.80;;
30149;SDS011;16962;48.646;9.026;2023-03-14T02:50:42;1.77;;;0.98;;
30149;SDS011;16962;48.646;9.026;2023-03-14T02:53:32;2.28;;;0.90;;
30149;SDS011;16962;48.646;9.026;2023-03-14T02:56:21;1.23;;;0.90;;
30149;SDS011;16962;48.646;9.026;2023-03-14T02:59:08;2.67;;;1.13;;
30149;SDS011;16962;48.646;9.026;2023-03-14T03:01:59;1.92;;;1.00;;
30149;SDS011;16962;48.646;9.026;2023-03-14T03:04:48;3.13;;;1.00;;
30149;SDS011;16962;48.646;9.026;2023-03-14T03:07:38;3.03;;;1.10;;
30149;SDS011;16962;48.646;9.026;2023-03-14T03:10:25;1.23;;;1.13;;
30149;SDS011;16962;48.646;9.026;2023-03-14T03:13:13;1.45;;;1.25;;
30149;SDS011;16962;48.646;9.026;2023-03-14T03:16:03;3.40;;;1.10;;
30149;SDS011;16962;48.646;9.026;2023-03-14T03:21:42;3.38;;;1.20;;
30149;SDS011;16962;48.646;9.026;2023-03-14T03:24:30;5.57;;;1.30;;
30149;SDS011;16962;48.646;9.026;2023-03-14T03:27:21;2.30;;;1.13;;
30149;SDS011;16962;48.646;9.026;2023-03-14T03:30:08;3.47;;;1.00;;
30149;SDS011;16962;48.646;9.026;2023-03-14T03:32:57;4.13;;;1.40;;
30149;SDS011;16962;48.646;9.026;2023-03-14T03:38:32;3.95;;;1.30;;
30149;SDS011;16962;48.646;9.026;2023-03-14T03:41:19;3.22;;;1.30;;
30149;SDS011;16962;48.646;9.026;2023-03-14T03:44:06;4.93;;;1.17;;
30149;SDS011;16962;48.646;9.026;2023-03-14T03:46:55;3.58;;;1.38;;
30149;SDS011;16962;48.646;9.026;2023-03-14T03:49:42;5.28;;;2.08;;
30149;SDS011;16962;48.646;9.026;2023-03-14T03:52:29;6.28;;;1.30;;
30149;SDS011;16962;48.646;9.026;2023-03-14T03:55:26;5.90;;;1.10;;
30149;SDS011;16962;48.646;9.026;2023-03-14T03:58:17;8.43;;;1.83;;
30149;SDS011;16962;48.646;9.026;2023-03-14T04:01:04;4.68;;;1.20;;
30149;SDS011;16962;48.646;9.026;2023-03-14T04:03:57;7.13;;;1.50;;
30149;SDS011;16962;48.646;9.026;2023-03-14T04:06:51;5.20;;;1.30;;
30149;SDS011;16962;48.646;9.026;2023-03-14T04:09:38;6.00;;;1.30;;
30149;SDS011;16962;48.646;9.026;2023-03-14T04:12:28;6.45;;;1.75;;
30149;SDS011;16962;48.646;9.026;2023-03-14T04:15:18;9.00;;;1.90;;
30149;SDS011;16962;48.646;9.026;2023-03-14T04:18:06;5.68;;;1.92;;
30149;SDS011;16962;48.646;9.026;2023-03-14T04:20:55;4.75;;;1.23;;
30149;SDS011;16962;48.646;9.026;2023-03-14T04:23:44;6.65;;;1.55;;
30149;SDS011;16962;48.646;9.026;2023-03-14T04:26:31;2.85;;;1.20;;
30149;SDS011;16962;48.646;9.026;2023-03-14T04:29:18;3.75;;;1.55;;
30149;SDS011;16962;48.646;9.026;2023-03-14T04:32:05;7.22;;;1.70;;
30149;SDS011;16962;48.646;9.026;2023-03-14T04:34:52;6.40;;;1.35;;
30149;SDS011;16962;48.646;9.026;2023-03-14T04:37:42;4.15;;;1.20;;
30149;SDS011;16962;48.646;9.026;2023-03-14T04:40:30;8.30;;;1.30;;
30149;SDS011;16962;48.646;9.026;2023-03-14T04:43:19;7.45;;;1.60;;
30149;SDS011;16962;48.646;9.026;2023-03-14T04:46:07;8.02;;;1.58;;
30149;SDS011;16962;48.646;9.026;2023-03-14T04:48:55;8.10;;;1.33;;
30149;SDS011;16962;48.646;9.026;2023-03-14T04:51:43;8.88;;;1.85;;
30149;SDS011;16962;48.646;9.026;2023-03-14T04:54:30;4.25;;;1.25;;
30149;SDS011;16962;48.646;9.026;2023-03-14T04:57:17;3.92;;;1.10;;
30149;SDS011;16962;48.646;9.026;2023-03-14T05:00:05;6.20;;;1.40;;
30149;SDS011;16962;48.646;9.026;2023-03-14T05:02:56;4.50;;;1.25;;
30149;SDS011;16962;48.646;9.026;2023-03-14T05:06:40;6.88;;;1.20;;
30149;SDS011;16962;48.646;9.026;2023-03-14T05:09:28;5.10;;;1.45;;
30149;SDS011;16962;48.646;9.026;2023-03-14T05:12:18;4.90;;;1.50;;
30149;SDS011;16962;48.646;9.026;2023-03-14T05:15:06;4.45;;;1.10;;
30149;SDS011;16962;48.646;9.026;2023-03-14T05:17:57;7.28;;;1.50;;
30149;SDS011;16962;48.646;9.026;2023-03-14T05:20:46;5.60;;;1.50;;
30149;SDS011;16962;48.646;9.026;2023-03-14T05:23:36;6.55;;;1.33;;
30149;SDS011;16962;48.646;9.026;2023-03-14T05:26:23;3.92;;;1.60;;
30149;SDS011;16962;48.646;9.026;2023-03-14T05:29:11;8.15;;;1.30;;
30149;SDS011;16962;48.646;9.026;2023-03-14T05:31:58;6.43;;;1.20;;
30149;SDS011;16962;48.646;9.026;2023-03-14T05:34:45;3.85;;;1.27;;
30149;SDS011;16962;48.646;9.026;2023-03-14T05:37:32;2.63;;;1.10;;
30149;SDS011;16962;48.646;9.026;2023-03-14T05:40:21;4.50;;;1.30;;
30149;SDS011;16962;48.646;9.026;2023-03-14T05:43:10;5.60;;;1.50;;
30149;SDS011;16962;48.646;9.026;2023-03-14T05:45:57;3.42;;;1.10;;
30149;SDS011;16962;48.646;9.026;2023-03-14T05:48:44;3.80;;;1.38;;
30149;SDS011;16962;48.646;9.026;2023-03-14T05:51:32;8.60;;;1.88;;
30149;SDS011;16962;48.646;9.026;2023-03-14T05:54:21;5.20;;;1.63;;
30149;SDS011;16962;48.646;9.026;2023-03-14T05:57:09;8.25;;;1.70;;
30149;SDS011;16962;48.646;9.026;2023-03-14T05:59:56;5.72;;;1.50;;
30149;SDS011;16962;48.646;9.026;2023-03-14T06:02:45;7.43;;;1.88;;
30149;SDS011;16962;48.646;9.026;2023-03-14T06:05:32;7.90;;;2.53;;
30149;SDS011;16962;48.646;9.026;2023-03-14T06:08:23;5.22;;;1.90;;
30149;SDS011;16962;48.646;9.026;2023-03-14T06:11:13;6.38;;;1.73;;
30149;SDS011;16962;48.646;9.026;2023-03-14T06:14:00;5.43;;;1.30;;
30149;SDS011;16962;48.646;9.026;2023-03-14T06:16:47;3.75;;;1.35;;
30149;SDS011;16962;48.646;9.026;2023-03-14T06:19:35;4.35;;;1.45;;
30149;SDS011;16962;48.646;9.026;2023-03-14T06:22:23;4.25;;;1.10;;
30149;SDS011;16962;48.646;9.026;2023-03-14T06:25:10;4.72;;;1.45;;
30149;SDS011;16962;48.646;9.026;2023-03-14T06:27:59;3.15;;;0.93;;
30149;SDS011;16962;48.646;9.026;2023-03-14T06:30:46;1.85;;;1.00;;
30149;SDS011;16962;48.646;9.026;2023-03-14T06:33:33;2.53;;;1.20;;
30149;SDS011;16962;48.646;9.026;2023-03-14T06:36:24;2.50;;;0.95;;
30149;SDS011;16962;48.646;9.026;2023-03-14T06:39:11;3.25;;;1.05;;
30149;SDS011;16962;48.646;9.026;2023-03-14T06:41:59;3.58;;;1.23;;
30149;SDS011;16962;48.646;9.026;2023-03-14T06:44:46;3.33;;;1.05;;
30149;SDS011;16962;48.646;9.026;2023-03-14T06:47:33;3.20;;;1.30;;
30149;SDS011;16962;48.646;9.026;2023-03-14T06:50:20;1.63;;;0.90;;
30149;SDS011;16962;48.646;9.026;2023-03-14T06:53:11;3.28;;;0.93;;
30149;SDS011;16962;48.646;9.026;2023-03-14T06:56:02;3.70;;;1.05;;
30149;SDS011;16962;48.646;9.026;2023-03-14T06:58:51;3.00;;;1.17;;
30149;SDS011;16962;48.646;9.026;2023-03-14T07:01:39;3.80;;;1.02;;
30149;SDS011;16962;48.646;9.026;2023-03-14T07:04:29;1.17;;;0.93;;
30149;SDS011;16962;48.646;9.026;2023-03-14T07:07:19;3.75;;;1.00;;
30149;SDS011;16962;48.646;9.026;2023-03-14T07:10:06;3.63;;;0.90;;
30149;SDS011;16962;48.646;9.026;2023-03-14T07:12:55;1.00;;;0.90;;
30149;SDS011;16962;48.646;9.026;2023-03-14T07:15:44;5.30;;;1.05;;
30149;SDS011;16962;48.646;9.026;2023-03-14T07:18:32;2.92;;;1.08;;
30149;SDS011;16962;48.646;9.026;2023-03-14T07:21:20;1.63;;;0.95;;
30149;SDS011;16962;48.646;9.026;2023-03-14T07:24:24;2.75;;;1.05;;
30149;SDS011;16962;48.646;9.026;2023-03-14T07:27:11;2.90;;;1.02;;
30149;SDS011;16962;48.646;9.026;2023-03-14T07:30:02;2.28;;;0.90;;
30149;SDS011;16962;48.646;9.026;2023-03-14T07:32:50;0.75;;;0.75;;
30149;SDS011;16962;48.646;9.026;2023-03-14T07:35:38;1.98;;;0.90;;
30149;SDS011;16962;48.646;9.026;2023-03-14T07:38:26;4.00;;;1.00;;
30149;SDS011;16962;48.646;9.026;2023-03-14T07:41:24;4.80;;;0.98;;
30149;SDS011;16962;48.646;9.026;2023-03-14T07:44:14;2.88;;;0.98;;
30149;SDS011;16962;48.646;9.026;2023-03-14T07:47:17;3.45;;;1.15;;
30149;SDS011;16962;48.646;9.026;2023-03-14T07:50:25;2.35;;;0.80;;
30149;SDS011;16962;48.646;9.026;2023-03-14T07:53:22;2.33;;;0.98;;
30149;SDS011;16962;48.646;9.026;2023-03-14T07:56:10;3.38;;;1.02;;
30149;SDS011;16962;48.646;9.026;2023-03-14T07:59:00;1.63;;;0.98;;
30149;SDS011;16962;48.646;9.026;2023-03-14T08:02:05;2.85;;;1.00;;
30149;SDS011;16962;48.646;9.026;2023-03-14T08:05:02;1.73;;;1.05;;
30149;SDS011;16962;48.646;9.026;2023-03-14T08:07:52;3.03;;;1.05;;
30149;SDS011;16962;48.646;9.026;2023-03-14T08:10:42;1.50;;;0.90;;
30149;SDS011;16962;48.646;9.026;2023-03-14T08:13:29;3.63;;;0.93;;
30149;SDS011;16962;48.646;9.026;2023-03-14T08:16:17;5.95;;;0.80;;
30149;SDS011;16962;48.646;9.026;2023-03-14T08:19:05;0.77;;;0.63;;
30149;SDS011;16962;48.646;9.026;2023-03-14T08:21:55;0.75;;;0.60;;
30149;SDS011;16962;48.646;9.026;2023-03-14T08:24:44;3.85;;;1.00;;
30149;SDS011;16962;48.646;9.026;2023-03-14T08:27:31;1.27;;;0.80;;
30149;SDS011;16962;48.646;9.026;2023-03-14T08:30:22;2.05;;;0.70;;
30149;SDS011;16962;48.646;9.026;2023-03-14T08:33:10;1.88;;;0.70;;
30149;SDS011;16962;48.646;9.026;2023-03-14T08:35:58;3.30;;;0.80;;
30149;SDS011;16962;48.646;9.026;2023-03-14T08:38:50;2.03;;;0.70;;
30149;SDS011;16962;48.646;9.026;2023-03-14T08:41:38;2.05;;;0.90;;
30149;SDS011;16962;48.646;9.026;2023-03-14T08:44:27;2.13;;;0.90;;
30149;SDS011;16962;48.646;9.026;2023-03-14T08:47:15;2.47;;;0.70;;
30149;SDS011;16962;48.646;9.026;2023-03-14T08:50:06;2.35;;;0.88;;
30149;SDS011;16962;48.646;9.026;2023-03-14T08:52:58;1.98;;;0.95;;
30149;SDS011;16962;48.646;9.026;2023-03-14T08:55:46;3.10;;;0.88;;
30149;SDS011;16962;48.646;9.026;2023-03-14T08:58:34;5.00;;;0.80;;
30149;SDS011;16962;48.646;9.026;2023-03-14T09:01:23;2.38;;;0.90;;
30149;SDS011;16962;48.646;9.026;2023-03-14T09:04:23;1.00;;;0.90;;
30149;SDS011;16962;48.646;9.026;2023-03-14T09:08:06;3.35;;;0.85;;
30149;SDS011;16962;48.646;9.026;2023-03-14T09:16:00;1.77;;;0.73;;
30149;SDS011;16962;48.646;9.026;2023-03-14T09:18:59;2.00;;;1.23;;
30149;SDS011;16962;48.646;9.026;2023-03-14T09:29:23;2.90;;;1.00;;
30149;SDS011;16962;48.646;9.026;2023-03-14T09:32:26;2.78;;;1.13;;
30149;SDS011;16962;48.646;9.026;2023-03-14T09:36:06;1.27;;;0.90;;
30149;SDS011;16962;48.646;9.026;2023-03-14T09:38:54;0.70;;;0.70;;
30149;SDS011;16962;48.646;9.026;2023-03-14T09:45:15;2.55;;;0.70;;
30149;SDS011;16962;48.646;9.026;2023-03-14T09:48:15;2.80;;;0.80;;
30149;SDS011;16962;48.646;9.026;2023-03-14T09:51:39;1.75;;;0.70;;
30149;SDS011;16962;48.646;9.026;2023-03-14T09:54:40;0.93;;;0.65;;
30149;SDS011;16962;48.646;9.026;2023-03-14T09:57:32;2.50;;;0.95;;
30149;SDS011;16962;48.646;9.026;2023-03-14T10:00:23;1.13;;;0.60;;
30149;SDS011;16962;48.646;9.026;2023-03-14T10:06:08;1.58;;;0.65;;
30149;SDS011;16962;48.646;9.026;2023-03-14T10:08:58;0.68;;;0.57;;
30149;SDS011;16962;48.646;9.026;2023-03-14T10:11:45;0.93;;;0.60;;
30149;SDS011;16962;48.646;9.026;2023-03-14T10:14:34;0.40;;;0.40;;
30149;SDS011;16962;48.646;9.026;2023-03-14T10:17:29;2.78;;;0.55;;
30149;SDS011;16962;48.646;9.026;2023-03-14T10:24:29;0.93;;;0.57;;
30149;SDS011;16962;48.646;9.026;2023-03-14T10:27:22;0.95;;;0.60;;
30149;SDS011;16962;48.646;9.026;2023-03-14T10:30:54;0.77;;;0.70;;
30149;SDS011;16962;48.646;9.026;2023-03-14T10:33:34;0.50;;;0.50;;
30149;SDS011;16962;48.646;9.026;2023-03-14T10:36:23;1.55;;;0.60;;
30149;SDS011;16962;48.646;9.026;2023-03-14T10:39:45;1.52;;;0.60;;
30149;SDS011;16962;48.646;9.026;2023-03-14T10:42:41;3.08;;;0.70;;
30149;SDS011;16962;48.646;9.026;2023-03-14T10:45:39;1.88;;;0.93;;
30149;SDS011;16962;48.646;9.026;2023-03-14T10:48:31;0.82;;;0.55;;
30149;SDS011;16962;48.646;9.026;2023-03-14T10:51:28;0.82;;;0.60;;
30149;SDS011;16962;48.646;9.026;2023-03-14T10:54:20;0.65;;;0.52;;
30149;SDS011;16962;48.646;9.026;2023-03-14T10:57:18;0.82;;;0.70;;
30149;SDS011;16962;48.646;9.026;2023-03-14T11:00:15;1.85;;;0.80;;
30149;SDS011;16962;48.646;9.026;2023-03-14T11:03:10;1.23;;;1.02;;
30149;SDS011;16962;48.646;9.026;2023-03-14T11:13:57;1.92;;;0.90;;
30149;SDS011;16962;48.646;9.026;2023-03-14T11:23:22;0.70;;;0.70;;
30149;SDS011;16962;48.646;9.026;2023-03-14T11:29:12;1.60;;;0.60;;
30149;SDS011;16962;48.646;9.026;2023-03-14T11:38:37;1.95;;;0.70;;
30149;SDS011;16962;48.646;9.026;2023-03-14T11:41:43;0.60;;;0.60;;
30149;SDS011;16962;48.646;9.026;2023-03-14T11:44:39;2.10;;;0.80;;
30149;SDS011;16962;48.646;9.026;2023-03-14T11:47:30;0.80;;;0.80;;
30149;SDS011;16962;48.646;9.026;2023-03-14T11:50:27;0.60;;;0.60;;
30149;SDS011;16962;48.646;9.026;2023-03-14T12:05:27;1.08;;;0.77;;
30149;SDS011;16962;48.646;9.026;2023-03-14T12:11:40;1.27;;;0.70;;
30149;SDS011;16962;48.646;9.026;2023-03-14T12:14:59;0.50;;;0.50;;
30149;SDS011;16962;48.646;9.026;2023-03-14T12:17:54;0.60;;;0.60;;
30149;SDS011;16962;48.646;9.026;2023-03-14T12:20:50;0.50;;;0.50;;
30149;SDS011;16962;48.646;9.026;2023-03-14T12:23:59;0.80;;;0.80;;
30149;SDS011;16962;48.646;9.026;2023-03-14T12:26:50;0.55;;;0.55;;
30149;SDS011;16962;48.646;9.026;2023-03-14T12:30:01;0.52;;;0.45;;
30149;SDS011;16962;48.646;9.026;2023-03-14T12:33:29;0.60;;;0.60;;
30149;SDS011;16962;48.646;9.026;2023-03-14T12:51:30;1.80;;;0.60;;
30149;SDS011;16962;48.646;9.026;2023-03-14T13:05:20;0.80;;;0.70;;
30149;SDS011;16962;48.646;9.026;2023-03-14T13:08:19;2.05;;;0.68;;
30149;SDS011;16962;48.646;9.026;2023-03-14T13:17:30;2.17;;;0.80;;
30149;SDS011;16962;48.646;9.026;2023-03-14T13:24:39;2.15;;;1.00;;
30149;SDS011;16962;48.646;9.026;2023-03-14T13:32:39;5.00;;;1.30;;
30149;SDS011;16962;48.646;9.026;2023-03-14T13:44:21;1.15;;;0.93;;
30149;SDS011;16962;48.646;9.026;2023-03-14T13:47:29;2.45;;;1.00;;
30149;SDS011;16962;48.646;9.026;2023-03-14T13:50:17;8.18;;;1.70;;
30149;SDS011;16962;48.646;9.026;2023-03-14T13:53:26;3.72;;;1.20;;
30149;SDS011;16962;48.646;9.026;2023-03-14T13:56:46;3.30;;;1.10;;
30149;SDS011;16962;48.646;9.026;2023-03-14T13:59:36;2.83;;;1.33;;
30149;SDS011;16962;48.646;9.026;2023-03-14T14:02:24;6.55;;;1.10;;
30149;SDS011;16962;48.646;9.026;2023-03-14T14:05:13;1.73;;;1.10;;
30149;SDS011;16962;48.646;9.026;2023-03-14T14:08:04;2.90;;;1.13;;
30149;SDS011;16962;48.646;9.026;2023-03-14T14:10:58;3.90;;;1.38;;
30149;SDS011;16962;48.646;9.026;2023-03-14T14:13:48;1.40;;;1.00;;
30149;SDS011;16962;48.646;9.026;2023-03-14T14:16:38;4.43;;;1.45;;
30149;SDS011;16962;48.646;9.026;2023-03-14T14:19:27;4.38;;;1.40;;
30149;SDS011;16962;48.646;9.026;2023-03-14T14:22:17;4.07;;;0.80;;
30149;SDS011;16962;48.646;9.026;2023-03-14T14:25:06;3.45;;;1.40;;
30149;SDS011;16962;48.646;9.026;2023-03-14T14:28:13;4.82;;;1.42;;
30149;SDS011;16962;48.646;9.026;2023-03-14T14:31:29;4.68;;;1.35;;
30149;SDS011;16962;48.646;9.026;2023-03-14T14:34:38;3.00;;;1.33;;
30149;SDS011;16962;48.646;9.026;2023-03-14T14:37:42;2.38;;;1.17;;
30149;SDS011;16962;48.646;9.026;2023-03-14T14:40:33;4.93;;;1.55;;
30149;SDS011;16962;48.646;9.026;2023-03-14T14:43:22;3.25;;;1.40;;
30149;SDS011;16962;48.646;9.026;2023-03-14T14:46:16;3.35;;;1.35;;
30149;SDS011;16962;48.646;9.026;2023-03-14T14:49:09;3.63;;;1.40;;
30149;SDS011;16962;48.646;9.026;2023-03-14T14:52:22;5.80;;;1.63;;
30149;SDS011;16962;48.646;9.026;2023-03-14T14:55:34;4.05;;;1.45;;
30149;SDS011;16962;48.646;9.026;2023-03-14T14:58:27;6.43;;;1.40;;
30149;SDS011;16962;48.646;9.026;2023-03-14T15:01:22;5.15;;;1.35;;
30149;SDS011;16962;48.646;9.026;2023-03-14T15:04:20;6.03;;;1.67;;
30149;SDS011;16962;48.646;9.026;2023-03-14T15:07:12;3.75;;;1.38;;
30149;SDS011;16962;48.646;9.026;2023-03-14T15:10:24;5.63;;;1.33;;
30149;SDS011;16962;48.646;9.026;2023-03-14T15:13:22;2.60;;;1.02;;
30149;SDS011;16962;48.646;9.026;2023-03-14T15:16:28;4.35;;;1.20;;
30149;SDS011;16962;48.646;9.026;2023-03-14T15:19:50;3.22;;;1.10;;
30149;SDS011;16962;48.646;9.026;2023-03-14T15:22:43;3.45;;;1.02;;
30149;SDS011;16962;48.646;9.026;2023-03-14T15:25:42;3.28;;;1.10;;
30149;SDS011;16962;48.646;9.026;2023-03-14T15:29:17;5.15;;;1.10;;
30149;SDS011;16962;48.646;9.026;2023-03-14T15:32:21;6.07;;;1.70;;
30149;SDS011;16962;48.646;9.026;2023-03-14T15:35:42;4.45;;;1.58;;
30149;SDS011;16962;48.646;9.026;2023-03-14T15:38:34;4.13;;;1.42;;
30149;SDS011;16962;48.646;9.026;2023-03-14T15:41:33;6.60;;;1.40;;
30149;SDS011;16962;48.646;9.026;2023-03-14T15:44:30;3.70;;;1.25;;
30149;SDS011;16962;48.646;9.026;2023-03-14T15:47:20;3.80;;;1.75;;
30149;SDS011;16962;48.646;9.026;2023-03-14T15:50:11;4.97;;;1.40;;
30149;SDS011;16962;48.646;9.026;2023-03-14T15:53:11;6.82;;;1.63;;
30149;SDS011;16962;48.646;9.026;2023-03-14T15:56:24;4.97;;;1.38;;
30149;SDS011;16962;48.646;9.026;2023-03-14T15:59:34;4.10;;;1.30;;
30149;SDS011;16962;48.646;9.026;2023-03-14T16:11:03;5.20;;;1.70;;
30149;SDS011;16962;48.646;9.026;2023-03-14T16:13:55;4.32;;;1.70;;
30149;SDS011;16962;48.646;9.026;2023-03-14T16:17:42;3.13;;;2.00;;
30149;SDS011;16962;48.646;9.026;2023-03-14T16:31:54;6.30;;;1.65;;
30149;SDS011;16962;48.646;9.026;2023-03-14T16:34:50;5.68;;;2.08;;
30149;SDS011;16962;48.646;9.026;2023-03-14T16:37:41;8.18;;;1.35;;
30149;SDS011;16962;48.646;9.026;2023-03-14T16:40:32;6.80;;;2.00;;
30149;SDS011;16962;48.646;9.026;2023-03-14T16:43:28;6.57;;;1.67;;
30149;SDS011;16962;48.646;9.026;2023-03-14T16:46:16;4.45;;;2.10;;
30149;SDS011;16962;48.646;9.026;2023-03-14T16:49:04;6.57;;;1.88;;
30149;SDS011;16962;48.646;9.026;2023-03-14T16:51:57;2.72;;;1.50;;
30149;SDS011;16962;48.646;9.026;2023-03-14T16:54:45;8.05;;;1.95;;
30149;SDS011;16962;48.646;9.026;2023-03-14T16:57:32;8.80;;;1.80;;
30149;SDS011;16962;48.646;9.026;2023-03-14T17:00:40;2.97;;;1.75;;
30149;SDS011;16962;48.646;9.026;2023-03-14T17:12:16;5.22;;;2.13;;
30149;SDS011;16962;48.646;9.026;2023-03-14T17:18:51;3.05;;;1.55;;
30149;SDS011;16962;48.646;9.026;2023-03-14T17:22:04;7.07;;;1.70;;
30149;SDS011;16962;48.646;9.026;2023-03-14T17:25:13;5.07;;;1.70;;
30149;SDS011;16962;48.646;9.026;2023-03-14T17:28:17;7.35;;;1.60;;
30149;SDS011;16962;48.646;9.026;2023-03-14T17:31:52;4.35;;;1.80;;
30149;SDS011;16962;48.646;9.026;2023-03-14T17:42:29;4.03;;;1.90;;
30149;SDS011;16962;48.646;9.026;2023-03-14T17:46:58;5.68;;;2.10;;
30149;SDS011;16962;48.646;9.026;2023-03-14T17:50:01;3.65;;;1.30;;
30149;SDS011;16962;48.646;9.026;2023-03-14T17:52:55;3.38;;;1.48;;
30149;SDS011;16962;48.646;9.026;2023-03-14T17:55:50;4.28;;;2.20;;
30149;SDS011;16962;48.646;9.026;2023-03-14T17:59:01;2.97;;;1.70;;
30149;SDS011;16962;48.646;9.026;2023-03-14T18:02:09;4.93;;;1.80;;
30149;SDS011;16962;48.646;9.026;2023-03-14T18:05:06;4.53;;;1.77;;
30149;SDS011;16962;48.646;9.026;2023-03-14T18:07:56;4.60;;;1.92;;
30149;SDS011;16962;48.646;9.026;2023-03-14T18:10:43;4.53;;;2.08;;
30149;SDS011;16962;48.646;9.026;2023-03-14T18:13:31;7.13;;;2.20;;
30149;SDS011;16962;48.646;9.026;2023-03-14T18:16:18;4.88;;;2.10;;
30149;SDS011;16962;48.646;9.026;2023-03-14T18:19:08;6.30;;;1.95;;
30149;SDS011;16962;48.646;9.026;2023-03-14T18:21:55;4.57;;;2.30;;
30149;SDS011;16962;48.646;9.026;2023-03-14T18:24:43;4.57;;;2.80;;
30149;SDS011;16962;48.646;9.026;2023-03-14T18:27:30;6.68;;;2.58;;
30149;SDS011;16962;48.646;9.026;2023-03-14T18:30:18;10.05;;;3.28;;
30149;SDS011;16962;48.646;9.026;2023-03-14T18:33:06;7.55;;;2.38;;
30149;SDS011;16962;48.646;9.026;2023-03-14T18:35:55;3.70;;;2.22;;
30149;SDS011;16962;48.646;9.026;2023-03-14T18:38:43;3.97;;;2.33;;
30149;SDS011;16962;48.646;9.026;2023-03-14T18:41:35;6.07;;;2.85;;
30149;SDS011;16962;48.646;9.026;2023-03-14T18:44:26;8.05;;;2.95;;
30149;SDS011;16962;48.646;9.026;2023-03-14T18:47:16;6.45;;;2.90;;
30149;SDS011;16962;48.646;9.026;2023-03-14T18:50:05;5.10;;;2.40;;
30149;SDS011;16962;48.646;9.026;2023-03-14T18:52:54;7.47;;;2.70;;
30149;SDS011;16962;48.646;9.026;2023-03-14T18:55:52;5.32;;;2.53;;
30149;SDS011;16962;48.646;9.026;2023-03-14T18:58:48;5.20;;;2.40;;
30149;SDS011;16962;48.646;9.026;2023-03-14T19:01:47;6.35;;;2.33;;
30149;SDS011;16962;48.646;9.026;2023-03-14T19:04:35;5.50;;;2.30;;
30149;SDS011;16962;48.646;9.026;2023-03-14T19:07:23;7.68;;;2.78;;
30149;SDS011;16962;48.646;9.026;2023-03-14T19:10:10;6.07;;;2.05;;
30149;SDS011;16962;48.646;9.026;2023-03-14T19:13:01;6.13;;;2.33;;
30149;SDS011;16962;48.646;9.026;2023-03-14T19:15:48;5.68;;;2.08;;
30149;SDS011;16962;48.646;9.026;2023-03-14T19:18:37;5.50;;;2.20;;
30149;SDS011;16962;48.646;9.026;2023-03-14T19:21:29;6.65;;;2.65;;
30149;SDS011;16962;48.646;9.026;2023-03-14T19:24:20;5.82;;;2.60;;
30149;SDS011;16962;48.646;9.026;2023-03-14T19:27:08;4.03;;;2.35;;
30149;SDS011;16962;48.646;9.026;2023-03-14T19:29:59;6.40;;;2.30;;
30149;SDS011;16962;48.646;9.026;2023-03-14T19:32:47;3.45;;;2.22;;
30149;SDS011;16962;48.646;9.026;2023-03-14T19:35:36;7.97;;;2.58;;
30149;SDS011;16962;48.646;9.026;2023-03-14T19:38:25;6.90;;;2.80;;
30149;SDS011;16962;48.646;9.026;2023-03-14T19:41:13;7.40;;;2.92;;
30149;SDS011;16962;48.646;9.026;2023-03-14T19:44:03;5.90;;;2.88;;
30149;SDS011;16962;48.646;9.026;2023-03-14T19:46:55;9.45;;;3.80;;
30149;SDS011;16962;48.646;9.026;2023-03-14T19:49:45;10.10;;;4.32;;
30149;SDS011;16962;48.646;9.026;2023-03-14T19:52:33;8.43;;;3.60;;
30149;SDS011;16962;48.646;9.026;2023-03-14T19:55:22;12.02;;;4.32;;
30149;SDS011;16962;48.646;9.026;2023-03-14T19:58:11;8.70;;;4.10;;
30149;SDS011;16962;48.646;9.026;2023-03-14T20:00:59;14.32;;;4.50;;
30149;SDS011;16962;48.646;9.026;2023-03-14T20:03:48;5.78;;;2.85;;
30149;SDS011;16962;48.646;9.026;2023-03-14T20:06:36;4.68;;;2.67;;
30149;SDS011;16962;48.646;9.026;2023-03-14T20:09:23;13.32;;;5.32;;
30149;SDS011;16962;48.646;9.026;2023-03-14T20:12:12;8.10;;;4.05;;
30149;SDS011;16962;48.646;9.026;2023-03-14T20:14:59;9.15;;;5.50;;
30149;SDS011;16962;48.646;9.026;2023-03-14T20:17:50;11.00;;;3.97;;
30149;SDS011;16962;48.646;9.026;2023-03-14T20:20:39;12.05;;;5.10;;
30149;SDS011;16962;48.646;9.026;2023-03-14T20:23:30;5.50;;;3.05;;
30149;SDS011;16962;48.646;9.026;2023-03-14T20:26:17;9.80;;;3.10;;
30149;SDS011;16962;48.646;9.026;2023-03-14T20:29:05;6.55;;;3.13;;